sensor_id;sensor_type;location;lat;lon;timestamp;temperature;humidity
36424;DHT22;22458;45.328;9.514;2023-04-03T00:00:12;13.60;70.40
36424;DHT22;22458;45.328;9.514;2023-04-03T00:02:38;13.50;70.80
36424;DHT22;22458;45.328;9.514;2023-04-03T00:05:06;13.60;71.00
36424;DHT22;22458;45.328;9.514;2023-04-03T00:07:32;13.60;71.00
36424;DHT22;22458;45.328;9.514;2023-04-03T00:09:57;13.60;71.00
36424;DHT22;22458;45.328;9.514;2023-04-03T00:12:23;13.70;71.00
36424;DHT22;22458;45.328;9.514;2023-04-03T00:14:49;13.70;70.80
36424;DHT22;22458;45.328;9.514;2023-04-03T00:17:15;13.70;70.90
36424;DHT22;22458;45.328;9.514;2023-04-03T00:19:41;13.60;71.10
36424;DHT22;22458;45.328;9.514;2023-04-03T00:22:06;13.60;71.50
36424;DHT22;22458;45.328;9.514;2023-04-03T00:24:32;13.70;71.60
36424;DHT22;22458;45.328;9.514;2023-04-03T00:26:58;13.70;71.60
36424;DHT22;22458;45.328;9.514;2023-04-03T00:29:24;13.70;71.60
36424;DHT22;22458;45.328;9.514;2023-04-03T00:31:50;13.70;71.70
36424;DHT22;22458;45.328;9.514;2023-04-03T00:34:18;13.60;71.70
36424;DHT22;22458;45.328;9.514;2023-04-03T00:36:45;13.60;71.60
36424;DHT22;22458;45.328;9.514;2023-04-03T00:39:11;13.60;71.50
36424;DHT22;22458;45.328;9.514;2023-04-03T00:41:36;13.60;71.70
36424;DHT22;22458;45.328;9.514;2023-04-03T00:44:19;13.60;71.70
36424;DHT22;22458;45.328;9.514;2023-04-03T00:46:45;13.60;71.70
36424;DHT22;22458;45.328;9.514;2023-04-03T00:49:11;13.40;71.80
36424;DHT22;22458;45.328;9.514;2023-04-03T00:51:36;13.40;71.90
36424;DHT22;22458;45.328;9.514;2023-04-03T00:54:05;13.40;71.90
36424;DHT22;22458;45.328;9.514;2023-04-03T00:56:32;13.40;71.90
36424;DHT22;22458;45.328;9.514;2023-04-03T00:59:05;13.30;71.70
36424;DHT22;22458;45.328;9.514;2023-04-03T01:01:32;13.30;72.00
36424;DHT22;22458;45.328;9.514;2023-04-03T01:04:02;13.30;72.10
36424;DHT22;22458;45.328;9.514;2023-04-03T01:06:32;13.30;72.10
36424;DHT22;22458;45.328;9.514;2023-04-03T01:09:04;13.20;72.30
36424;DHT22;22458;45.328;9.514;2023-04-03T01:11:31;13.00;72.70
36424;DHT22;22458;45.328;9.514;2023-04-03T01:13:56;12.60;73.80
36424;DHT22;22458;45.328;9.514;2023-04-03T01:16:23;12.40;74.90
36424;DHT22;22458;45.328;9.514;2023-04-03T01:18:49;12.40;75.40
36424;DHT22;22458;45.328;9.514;2023-04-03T01:24:21;12.50;75.40
36424;DHT22;22458;45.328;9.514;2023-04-03T01:26:49;12.60;75.10
36424;DHT22;22458;45.328;9.514;2023-04-03T01:29:16;12.70;74.90
36424;DHT22;22458;45.328;9.514;2023-04-03T01:31:54;12.80;74.70
36424;DHT22;22458;45.328;9.514;2023-04-03T01:34:21;12.80;74.70
36424;DHT22;22458;45.328;9.514;2023-04-03T01:36:48;12.80;74.50
36424;DHT22;22458;45.328;9.514;2023-04-03T01:39:14;12.80;74.40
36424;DHT22;22458;45.328;9.514;2023-04-03T01:41:40;12.80;74.30
36424;DHT22;22458;45.328;9.514;2023-04-03T01:44:17;12.80;74.20
36424;DHT22;22458;45.328;9.514;2023-04-03T01:46:44;12.90;74.10
36424;DHT22;22458;45.328;9.514;2023-04-03T01:49:10;12.90;74.00
36424;DHT22;22458;45.328;9.514;2023-04-03T01:51:36;12.80;74.10
36424;DHT22;22458;45.328;9.514;2023-04-03T01:54:02;12.70;74.40
36424;DHT22;22458;45.328;9.514;2023-04-03T01:56:28;12.70;74.40
36424;DHT22;22458;45.328;9.514;2023-04-03T01:58:54;12.70;74.40
36424;DHT22;22458;45.328;9.514;2023-04-03T02:01:20;12.60;74.40
36424;DHT22;22458;45.328;9.514;2023-04-03T02:03:46;12.60;74.40
36424;DHT22;22458;45.328;9.514;2023-04-03T02:06:12;12.60;74.50
36424;DHT22;22458;45.328;9.514;2023-04-03T02:08:38;12.60;74.50
36424;DHT22;22458;45.328;9.514;2023-04-03T02:11:05;12.70;74.50
36424;DHT22;22458;45.328;9.514;2023-04-03T02:13:32;12.70;74.40
36424;DHT22;22458;45.328;9.514;2023-04-03T02:15:59;12.70;74.20
36424;DHT22;22458;45.328;9.514;2023-04-03T02:18:25;12.70;74.30
36424;DHT22;22458;45.328;9.514;2023-04-03T02:20:50;12.70;74.30
36424;DHT22;22458;45.328;9.514;2023-04-03T02:23:16;12.70;74.40
36424;DHT22;22458;45.328;9.514;2023-04-03T02:25:43;12.70;74.30
36424;DHT22;22458;45.328;9.514;2023-04-03T02:28:08;12.70;74.30
36424;DHT22;22458;45.328;9.514;2023-04-03T02:30:34;12.70;74.40
36424;DHT22;22458;45.328;9.514;2023-04-03T02:33:00;12.70;74.40
36424;DHT22;22458;45.328;9.514;2023-04-03T02:35:26;12.80;74.40
36424;DHT22;22458;45.328;9.514;2023-04-03T02:37:54;12.80;74.40
36424;DHT22;22458;45.328;9.514;2023-04-03T02:40:21;12.70;74.50
36424;DHT22;22458;45.328;9.514;2023-04-03T02:42:47;12.60;74.70
36424;DHT22;22458;45.328;9.514;2023-04-03T02:45:13;12.60;74.80
36424;DHT22;22458;45.328;9.514;2023-04-03T02:47:39;12.50;74.80
36424;DHT22;22458;45.328;9.514;2023-04-03T02:50:05;12.50;74.70
36424;DHT22;22458;45.328;9.514;2023-04-03T02:52:31;12.40;74.70
36424;DHT22;22458;45.328;9.514;2023-04-03T02:54:58;12.30;74.70
36424;DHT22;22458;45.328;9.514;2023-04-03T02:57:23;12.30;74.80
36424;DHT22;22458;45.328;9.514;2023-04-03T02:59:49;12.20;75.00
36424;DHT22;22458;45.328;9.514;2023-04-03T03:02:15;12.10;75.30
36424;DHT22;22458;45.328;9.514;2023-04-03T03:04:41;12.00;75.50
36424;DHT22;22458;45.328;9.514;2023-04-03T03:07:07;12.00;75.60
36424;DHT22;22458;45.328;9.514;2023-04-03T03:09:32;12.00;75.70
36424;DHT22;22458;45.328;9.514;2023-04-03T03:11:58;12.00;75.70
36424;DHT22;22458;45.328;9.514;2023-04-03T03:14:24;12.00;75.70
36424;DHT22;22458;45.328;9.514;2023-04-03T03:16:50;12.10;75.80
36424;DHT22;22458;45.328;9.514;2023-04-03T03:19:15;12.00;75.90
36424;DHT22;22458;45.328;9.514;2023-04-03T03:21:42;12.00;75.90
36424;DHT22;22458;45.328;9.514;2023-04-03T03:24:07;11.90;76.10
36424;DHT22;22458;45.328;9.514;2023-04-03T03:26:33;11.80;76.20
36424;DHT22;22458;45.328;9.514;2023-04-03T03:29:01;11.80;76.50
36424;DHT22;22458;45.328;9.514;2023-04-03T03:31:28;11.80;76.60
36424;DHT22;22458;45.328;9.514;2023-04-03T03:33:53;11.70;76.80
36424;DHT22;22458;45.328;9.514;2023-04-03T03:36:21;11.60;77.10
36424;DHT22;22458;45.328;9.514;2023-04-03T03:38:47;11.60;77.30
36424;DHT22;22458;45.328;9.514;2023-04-03T03:41:12;11.50;77.60
36424;DHT22;22458;45.328;9.514;2023-04-03T03:43:40;11.40;77.80
36424;DHT22;22458;45.328;9.514;2023-04-03T03:46:06;11.30;77.90
36424;DHT22;22458;45.328;9.514;2023-04-03T03:48:32;11.40;78.50
36424;DHT22;22458;45.328;9.514;2023-04-03T03:50:58;11.40;77.90
36424;DHT22;22458;45.328;9.514;2023-04-03T03:53:28;11.50;77.90
36424;DHT22;22458;45.328;9.514;2023-04-03T03:55:58;11.50;77.50
36424;DHT22;22458;45.328;9.514;2023-04-03T03:58:26;11.50;77.40
36424;DHT22;22458;45.328;9.514;2023-04-03T04:00:52;11.50;77.20
36424;DHT22;22458;45.328;9.514;2023-04-03T04:03:18;11.50;77.20
36424;DHT22;22458;45.328;9.514;2023-04-03T04:05:46;11.50;77.20
36424;DHT22;22458;45.328;9.514;2023-04-03T04:08:13;11.40;77.40
36424;DHT22;22458;45.328;9.514;2023-04-03T04:10:39;11.30;77.50
36424;DHT22;22458;45.328;9.514;2023-04-03T04:13:06;11.30;77.60
36424;DHT22;22458;45.328;9.514;2023-04-03T04:15:31;11.30;77.90
36424;DHT22;22458;45.328;9.514;2023-04-03T04:17:57;11.30;77.90
36424;DHT22;22458;45.328;9.514;2023-04-03T04:20:23;11.20;78.10
36424;DHT22;22458;45.328;9.514;2023-04-03T04:22:49;11.20;78.20
36424;DHT22;22458;45.328;9.514;2023-04-03T04:25:17;11.20;78.20
36424;DHT22;22458;45.328;9.514;2023-04-03T04:27:43;11.20;78.10
36424;DHT22;22458;45.328;9.514;2023-04-03T04:30:09;11.20;78.00
36424;DHT22;22458;45.328;9.514;2023-04-03T04:32:36;11.20;77.90
36424;DHT22;22458;45.328;9.514;2023-04-03T04:35:03;11.10;77.90
36424;DHT22;22458;45.328;9.514;2023-04-03T04:37:31;10.90;78.30
36424;DHT22;22458;45.328;9.514;2023-04-03T04:39:58;10.60;79.10
36424;DHT22;22458;45.328;9.514;2023-04-03T04:42:24;10.50;92.30
36424;DHT22;22458;45.328;9.514;2023-04-03T04:44:50;10.20;80.70
36424;DHT22;22458;45.328;9.514;2023-04-03T04:47:16;10.10;81.20
36424;DHT22;22458;45.328;9.514;2023-04-03T04:49:42;10.10;81.40
36424;DHT22;22458;45.328;9.514;2023-04-03T04:52:09;10.20;81.50
36424;DHT22;22458;45.328;9.514;2023-04-03T04:54:36;10.20;81.40
36424;DHT22;22458;45.328;9.514;2023-04-03T04:57:02;10.30;81.40
36424;DHT22;22458;45.328;9.514;2023-04-03T04:59:29;10.40;81.30
36424;DHT22;22458;45.328;9.514;2023-04-03T05:01:57;10.40;81.10
36424;DHT22;22458;45.328;9.514;2023-04-03T05:04:23;10.50;81.00
36424;DHT22;22458;45.328;9.514;2023-04-03T05:06:53;10.60;80.70
36424;DHT22;22458;45.328;9.514;2023-04-03T05:09:23;10.70;80.50
36424;DHT22;22458;45.328;9.514;2023-04-03T05:11:50;10.80;80.40
36424;DHT22;22458;45.328;9.514;2023-04-03T05:14:19;10.80;80.30
36424;DHT22;22458;45.328;9.514;2023-04-03T05:16:45;10.90;80.20
36424;DHT22;22458;45.328;9.514;2023-04-03T05:19:12;10.90;80.20
36424;DHT22;22458;45.328;9.514;2023-04-03T05:21:39;10.90;80.30
36424;DHT22;22458;45.328;9.514;2023-04-03T05:24:11;11.00;80.20
36424;DHT22;22458;45.328;9.514;2023-04-03T05:26:40;11.10;80.00
36424;DHT22;22458;45.328;9.514;2023-04-03T05:29:07;11.10;79.90
36424;DHT22;22458;45.328;9.514;2023-04-03T05:31:33;11.20;80.00
36424;DHT22;22458;45.328;9.514;2023-04-03T05:33:59;11.20;80.10
36424;DHT22;22458;45.328;9.514;2023-04-03T05:36:28;11.20;80.00
36424;DHT22;22458;45.328;9.514;2023-04-03T05:39:00;11.30;79.90
36424;DHT22;22458;45.328;9.514;2023-04-03T05:41:26;11.30;79.90
36424;DHT22;22458;45.328;9.514;2023-04-03T05:43:52;11.20;79.90
36424;DHT22;22458;45.328;9.514;2023-04-03T05:46:20;11.30;79.90
36424;DHT22;22458;45.328;9.514;2023-04-03T05:48:50;11.30;79.80
36424;DHT22;22458;45.328;9.514;2023-04-03T05:51:24;11.00;80.20
36424;DHT22;22458;45.328;9.514;2023-04-03T05:54:17;10.80;80.60
36424;DHT22;22458;45.328;9.514;2023-04-03T05:56:45;10.60;81.30
36424;DHT22;22458;45.328;9.514;2023-04-03T05:59:11;10.60;81.40
36424;DHT22;22458;45.328;9.514;2023-04-03T06:01:37;10.70;81.20
36424;DHT22;22458;45.328;9.514;2023-04-03T06:04:03;10.80;81.00
36424;DHT22;22458;45.328;9.514;2023-04-03T06:06:48;11.00;80.80
36424;DHT22;22458;45.328;9.514;2023-04-03T06:09:15;11.10;80.50
36424;DHT22;22458;45.328;9.514;2023-04-03T06:11:41;11.20;80.20
36424;DHT22;22458;45.328;9.514;2023-04-03T06:14:08;11.30;80.20
36424;DHT22;22458;45.328;9.514;2023-04-03T06:16:34;11.30;80.30
36424;DHT22;22458;45.328;9.514;2023-04-03T06:19:00;11.40;80.20
36424;DHT22;22458;45.328;9.514;2023-04-03T06:21:26;11.50;80.20
36424;DHT22;22458;45.328;9.514;2023-04-03T06:23:52;11.60;80.10
36424;DHT22;22458;45.328;9.514;2023-04-03T06:26:18;11.70;80.10
36424;DHT22;22458;45.328;9.514;2023-04-03T06:28:43;11.80;79.80
36424;DHT22;22458;45.328;9.514;2023-04-03T06:31:09;11.90;79.90
36424;DHT22;22458;45.328;9.514;2023-04-03T06:33:35;11.90;80.00
36424;DHT22;22458;45.328;9.514;2023-04-03T06:36:04;12.00;80.20
36424;DHT22;22458;45.328;9.514;2023-04-03T06:38:30;12.00;80.30
36424;DHT22;22458;45.328;9.514;2023-04-03T06:40:56;12.10;80.20
36424;DHT22;22458;45.328;9.514;2023-04-03T06:43:22;12.20;80.20
36424;DHT22;22458;45.328;9.514;2023-04-03T06:45:48;12.30;80.30
36424;DHT22;22458;45.328;9.514;2023-04-03T06:48:14;12.30;80.10
36424;DHT22;22458;45.328;9.514;2023-04-03T06:50:40;12.40;80.00
36424;DHT22;22458;45.328;9.514;2023-04-03T06:53:06;12.50;79.90
36424;DHT22;22458;45.328;9.514;2023-04-03T06:55:32;12.50;79.80
36424;DHT22;22458;45.328;9.514;2023-04-03T06:57:58;12.60;79.60
36424;DHT22;22458;45.328;9.514;2023-04-03T07:00:24;12.60;79.50
36424;DHT22;22458;45.328;9.514;2023-04-03T07:02:50;12.70;79.50
36424;DHT22;22458;45.328;9.514;2023-04-03T07:05:17;12.80;79.40
36424;DHT22;22458;45.328;9.514;2023-04-03T07:07:43;12.90;79.30
36424;DHT22;22458;45.328;9.514;2023-04-03T07:10:10;13.00;79.10
36424;DHT22;22458;45.328;9.514;2023-04-03T07:12:36;13.10;78.90
36424;DHT22;22458;45.328;9.514;2023-04-03T07:15:04;13.20;78.80
36424;DHT22;22458;45.328;9.514;2023-04-03T07:17:30;13.20;78.80
36424;DHT22;22458;45.328;9.514;2023-04-03T07:19:56;13.30;78.80
36424;DHT22;22458;45.328;9.514;2023-04-03T07:22:22;13.40;78.60
36424;DHT22;22458;45.328;9.514;2023-04-03T07:24:48;13.50;78.50
36424;DHT22;22458;45.328;9.514;2023-04-03T07:27:14;13.60;78.40
36424;DHT22;22458;45.328;9.514;2023-04-03T07:29:40;13.60;78.10
36424;DHT22;22458;45.328;9.514;2023-04-03T07:32:06;13.70;77.90
36424;DHT22;22458;45.328;9.514;2023-04-03T07:34:32;13.80;77.80
36424;DHT22;22458;45.328;9.514;2023-04-03T07:36:58;14.00;77.70
36424;DHT22;22458;45.328;9.514;2023-04-03T07:39:26;14.10;77.50
36424;DHT22;22458;45.328;9.514;2023-04-03T07:41:51;14.20;77.50
36424;DHT22;22458;45.328;9.514;2023-04-03T07:44:17;14.30;77.50
36424;DHT22;22458;45.328;9.514;2023-04-03T07:46:43;14.30;77.60
36424;DHT22;22458;45.328;9.514;2023-04-03T07:49:09;14.40;77.70
36424;DHT22;22458;45.328;9.514;2023-04-03T07:51:37;14.50;77.70
36424;DHT22;22458;45.328;9.514;2023-04-03T07:54:03;14.70;77.60
36424;DHT22;22458;45.328;9.514;2023-04-03T07:56:29;14.70;77.40
36424;DHT22;22458;45.328;9.514;2023-04-03T07:58:55;14.90;77.50
36424;DHT22;22458;45.328;9.514;2023-04-03T08:01:20;15.00;77.40
36424;DHT22;22458;45.328;9.514;2023-04-03T08:03:47;15.10;77.30
36424;DHT22;22458;45.328;9.514;2023-04-03T08:06:12;15.10;77.10
36424;DHT22;22458;45.328;9.514;2023-04-03T08:08:40;15.30;76.80
36424;DHT22;22458;45.328;9.514;2023-04-03T08:11:06;15.40;76.60
36424;DHT22;22458;45.328;9.514;2023-04-03T08:13:33;15.50;76.10
36424;DHT22;22458;45.328;9.514;2023-04-03T08:16:27;15.60;75.70
36424;DHT22;22458;45.328;9.514;2023-04-03T08:18:53;15.80;75.00
36424;DHT22;22458;45.328;9.514;2023-04-03T08:21:19;15.90;74.90
36424;DHT22;22458;45.328;9.514;2023-04-03T08:23:50;16.10;74.60
36424;DHT22;22458;45.328;9.514;2023-04-03T08:26:19;16.30;74.20
36424;DHT22;22458;45.328;9.514;2023-04-03T08:28:48;16.40;73.70
36424;DHT22;22458;45.328;9.514;2023-04-03T08:31:16;16.60;73.40
36424;DHT22;22458;45.328;9.514;2023-04-03T08:33:42;16.80;73.10
36424;DHT22;22458;45.328;9.514;2023-04-03T08:36:25;16.90;72.80
36424;DHT22;22458;45.328;9.514;2023-04-03T08:38:52;17.00;72.40
36424;DHT22;22458;45.328;9.514;2023-04-03T08:41:27;17.10;72.10
36424;DHT22;22458;45.328;9.514;2023-04-03T08:46:55;17.30;71.60
36424;DHT22;22458;45.328;9.514;2023-04-03T08:49:37;17.50;71.20
36424;DHT22;22458;45.328;9.514;2023-04-03T08:52:11;17.50;71.10
36424;DHT22;22458;45.328;9.514;2023-04-03T08:54:50;17.60;70.80
36424;DHT22;22458;45.328;9.514;2023-04-03T08:57:20;17.80;70.50
36424;DHT22;22458;45.328;9.514;2023-04-03T08:59:49;17.80;70.10
36424;DHT22;22458;45.328;9.514;2023-04-03T09:02:41;17.90;70.10
36424;DHT22;22458;45.328;9.514;2023-04-03T09:05:16;18.10;69.40
36424;DHT22;22458;45.328;9.514;2023-04-03T09:07:49;18.20;69.20
36424;DHT22;22458;45.328;9.514;2023-04-03T09:10:24;18.30;68.70
36424;DHT22;22458;45.328;9.514;2023-04-03T09:13:10;18.30;68.40
36424;DHT22;22458;45.328;9.514;2023-04-03T09:15:38;18.40;68.10
36424;DHT22;22458;45.328;9.514;2023-04-03T09:18:21;18.50;67.70
36424;DHT22;22458;45.328;9.514;2023-04-03T09:23:48;18.60;67.40
36424;DHT22;22458;45.328;9.514;2023-04-03T09:26:25;18.80;67.10
36424;DHT22;22458;45.328;9.514;2023-04-03T09:28:56;18.90;67.00
36424;DHT22;22458;45.328;9.514;2023-04-03T09:31:46;18.90;67.10
36424;DHT22;22458;45.328;9.514;2023-04-03T09:34:27;19.00;67.00
36424;DHT22;22458;45.328;9.514;2023-04-03T09:36:55;19.10;66.50
36424;DHT22;22458;45.328;9.514;2023-04-03T09:39:26;19.10;66.50
36424;DHT22;22458;45.328;9.514;2023-04-03T09:41:57;19.20;66.30
36424;DHT22;22458;45.328;9.514;2023-04-03T09:44:27;19.30;66.30
36424;DHT22;22458;45.328;9.514;2023-04-03T09:46:53;19.40;66.00
36424;DHT22;22458;45.328;9.514;2023-04-03T09:49:19;19.50;65.70
36424;DHT22;22458;45.328;9.514;2023-04-03T09:51:45;19.60;65.40
36424;DHT22;22458;45.328;9.514;2023-04-03T09:57:04;19.70;65.00
36424;DHT22;22458;45.328;9.514;2023-04-03T09:59:32;19.80;65.30
36424;DHT22;22458;45.328;9.514;2023-04-03T10:04:45;20.10;64.70
36424;DHT22;22458;45.328;9.514;2023-04-03T10:10:00;20.30;63.80
36424;DHT22;22458;45.328;9.514;2023-04-03T10:12:27;20.30;64.00
36424;DHT22;22458;45.328;9.514;2023-04-03T10:17:21;20.60;63.70
36424;DHT22;22458;45.328;9.514;2023-04-03T10:31:42;23.00;58.50
36424;DHT22;22458;45.328;9.514;2023-04-03T10:34:35;23.20;57.70
36424;DHT22;22458;45.328;9.514;2023-04-03T10:37:29;23.40;57.10
36424;DHT22;22458;45.328;9.514;2023-04-03T10:40:23;23.40;56.80
36424;DHT22;22458;45.328;9.514;2023-04-03T10:45:24;23.00;56.30
36424;DHT22;22458;45.328;9.514;2023-04-03T10:55:47;22.30;56.00
36424;DHT22;22458;45.328;9.514;2023-04-03T10:58:31;22.20;55.90
36424;DHT22;22458;45.328;9.514;2023-04-03T11:01:03;22.20;55.70
36424;DHT22;22458;45.328;9.514;2023-04-03T11:03:41;22.30;55.60
36424;DHT22;22458;45.328;9.514;2023-04-03T11:06:10;22.40;55.30
36424;DHT22;22458;45.328;9.514;2023-04-03T11:11:08;22.60;54.40
36424;DHT22;22458;45.328;9.514;2023-04-03T11:13:50;22.60;54.00
36424;DHT22;22458;45.328;9.514;2023-04-03T11:16:23;22.80;53.80
36424;DHT22;22458;45.328;9.514;2023-04-03T11:18:59;23.30;53.40
36424;DHT22;22458;45.328;9.514;2023-04-03T11:21:31;24.00;53.00
36424;DHT22;22458;45.328;9.514;2023-04-03T11:24:03;24.50;51.80
36424;DHT22;22458;45.328;9.514;2023-04-03T11:26:35;24.80;51.50
36424;DHT22;22458;45.328;9.514;2023-04-03T11:29:13;25.10;50.90
36424;DHT22;22458;45.328;9.514;2023-04-03T11:32:13;25.00;50.00
36424;DHT22;22458;45.328;9.514;2023-04-03T11:34:46;24.60;49.70
36424;DHT22;22458;45.328;9.514;2023-04-03T11:37:25;24.30;50.40
36424;DHT22;22458;45.328;9.514;2023-04-03T11:40:03;24.30;50.40
36424;DHT22;22458;45.328;9.514;2023-04-03T11:42:41;24.10;50.00
36424;DHT22;22458;45.328;9.514;2023-04-03T11:45:35;23.70;49.80
36424;DHT22;22458;45.328;9.514;2023-04-03T11:53:32;23.20;49.80
36424;DHT22;22458;45.328;9.514;2023-04-03T11:56:00;23.00;49.70
36424;DHT22;22458;45.328;9.514;2023-04-03T11:58:34;22.70;50.00
36424;DHT22;22458;45.328;9.514;2023-04-03T12:01:09;22.60;50.20
36424;DHT22;22458;45.328;9.514;2023-04-03T12:16:32;22.80;49.60
36424;DHT22;22458;45.328;9.514;2023-04-03T12:19:24;22.70;50.00
36424;DHT22;22458;45.328;9.514;2023-04-03T12:24:25;22.80;50.20
36424;DHT22;22458;45.328;9.514;2023-04-03T12:29:34;22.80;49.40
36424;DHT22;22458;45.328;9.514;2023-04-03T12:48:38;23.30;49.70
36424;DHT22;22458;45.328;9.514;2023-04-03T12:51:05;23.40;49.50
36424;DHT22;22458;45.328;9.514;2023-04-03T12:53:34;23.40;49.10
36424;DHT22;22458;45.328;9.514;2023-04-03T12:58:46;23.50;48.60
36424;DHT22;22458;45.328;9.514;2023-04-03T13:01:15;23.40;48.70
36424;DHT22;22458;45.328;9.514;2023-04-03T13:03:45;23.50;48.60
36424;DHT22;22458;45.328;9.514;2023-04-03T13:06:39;23.60;48.50
36424;DHT22;22458;45.328;9.514;2023-04-03T13:09:14;23.60;48.10
36424;DHT22;22458;45.328;9.514;2023-04-03T13:11:44;23.70;48.00
36424;DHT22;22458;45.328;9.514;2023-04-03T13:14:22;23.80;48.00
36424;DHT22;22458;45.328;9.514;2023-04-03T13:17:04;23.80;47.90
36424;DHT22;22458;45.328;9.514;2023-04-03T13:19:32;23.70;48.00
36424;DHT22;22458;45.328;9.514;2023-04-03T13:22:04;23.70;48.30
36424;DHT22;22458;45.328;9.514;2023-04-03T13:24:33;23.70;48.50
36424;DHT22;22458;45.328;9.514;2023-04-03T13:27:01;23.70;48.40
36424;DHT22;22458;45.328;9.514;2023-04-03T13:29:33;23.80;48.50
36424;DHT22;22458;45.328;9.514;2023-04-03T13:32:01;24.00;48.30
36424;DHT22;22458;45.328;9.514;2023-04-03T13:34:32;24.00;48.10
36424;DHT22;22458;45.328;9.514;2023-04-03T13:37:02;23.90;47.80
36424;DHT22;22458;45.328;9.514;2023-04-03T13:39:38;23.60;47.90
36424;DHT22;22458;45.328;9.514;2023-04-03T13:42:23;23.40;48.20
36424;DHT22;22458;45.328;9.514;2023-04-03T13:47:43;23.80;47.40
36424;DHT22;22458;45.328;9.514;2023-04-03T13:50:20;24.00;47.00
36424;DHT22;22458;45.328;9.514;2023-04-03T13:52:59;23.90;46.70
36424;DHT22;22458;45.328;9.514;2023-04-03T13:55:26;23.70;46.60
36424;DHT22;22458;45.328;9.514;2023-04-03T14:00:58;23.40;46.30
36424;DHT22;22458;45.328;9.514;2023-04-03T14:03:41;23.30;46.60
36424;DHT22;22458;45.328;9.514;2023-04-03T14:06:11;23.20;46.40
36424;DHT22;22458;45.328;9.514;2023-04-03T14:08:37;23.20;46.50
36424;DHT22;22458;45.328;9.514;2023-04-03T14:11:03;23.30;46.20
36424;DHT22;22458;45.328;9.514;2023-04-03T14:13:30;23.30;45.80
36424;DHT22;22458;45.328;9.514;2023-04-03T14:15:56;23.40;45.70
36424;DHT22;22458;45.328;9.514;2023-04-03T14:18:22;23.60;45.40
36424;DHT22;22458;45.328;9.514;2023-04-03T14:20:48;23.90;44.80
36424;DHT22;22458;45.328;9.514;2023-04-03T14:23:15;24.40;44.70
36424;DHT22;22458;45.328;9.514;2023-04-03T14:25:42;25.20;43.00
36424;DHT22;22458;45.328;9.514;2023-04-03T14:28:34;26.10;42.20
36424;DHT22;22458;45.328;9.514;2023-04-03T14:31:00;27.20;41.20
36424;DHT22;22458;45.328;9.514;2023-04-03T14:33:26;28.10;40.40
36424;DHT22;22458;45.328;9.514;2023-04-03T14:35:53;29.10;39.40
36424;DHT22;22458;45.328;9.514;2023-04-03T14:38:26;29.70;38.40
36424;DHT22;22458;45.328;9.514;2023-04-03T14:40:53;29.60;37.80
36424;DHT22;22458;45.328;9.514;2023-04-03T14:43:19;29.40;37.80
36424;DHT22;22458;45.328;9.514;2023-04-03T14:45:46;29.00;38.00
36424;DHT22;22458;45.328;9.514;2023-04-03T14:48:19;28.60;38.50
36424;DHT22;22458;45.328;9.514;2023-04-03T14:50:46;28.60;38.20
36424;DHT22;22458;45.328;9.514;2023-04-03T14:53:12;28.90;37.60
36424;DHT22;22458;45.328;9.514;2023-04-03T14:55:49;29.40;37.10
36424;DHT22;22458;45.328;9.514;2023-04-03T14:58:17;29.80;36.70
36424;DHT22;22458;45.328;9.514;2023-04-03T15:00:44;30.30;35.90
36424;DHT22;22458;45.328;9.514;2023-04-03T15:03:17;30.90;35.20
36424;DHT22;22458;45.328;9.514;2023-04-03T15:05:44;31.60;34.50
36424;DHT22;22458;45.328;9.514;2023-04-03T15:08:21;32.10;33.80
36424;DHT22;22458;45.328;9.514;2023-04-03T15:10:48;32.50;33.30
36424;DHT22;22458;45.328;9.514;2023-04-03T15:13:14;32.80;33.00
36424;DHT22;22458;45.328;9.514;2023-04-03T15:15:41;32.70;32.80
36424;DHT22;22458;45.328;9.514;2023-04-03T15:18:12;32.60;32.90
36424;DHT22;22458;45.328;9.514;2023-04-03T15:20:39;32.30;32.70
36424;DHT22;22458;45.328;9.514;2023-04-03T15:23:05;31.90;32.80
36424;DHT22;22458;45.328;9.514;2023-04-03T15:25:35;31.70;33.00
36424;DHT22;22458;45.328;9.514;2023-04-03T15:28:00;31.10;33.10
36424;DHT22;22458;45.328;9.514;2023-04-03T15:30:26;30.60;33.40
36424;DHT22;22458;45.328;9.514;2023-04-03T15:32:52;30.20;33.80
36424;DHT22;22458;45.328;9.514;2023-04-03T15:35:18;29.60;33.80
36424;DHT22;22458;45.328;9.514;2023-04-03T15:37:45;28.70;34.20
36424;DHT22;22458;45.328;9.514;2023-04-03T15:40:11;27.90;34.60
36424;DHT22;22458;45.328;9.514;2023-04-03T15:42:37;27.00;35.00
36424;DHT22;22458;45.328;9.514;2023-04-03T15:45:03;26.20;35.80
36424;DHT22;22458;45.328;9.514;2023-04-03T15:47:29;25.50;36.40
36424;DHT22;22458;45.328;9.514;2023-04-03T15:49:55;25.10;37.10
36424;DHT22;22458;45.328;9.514;2023-04-03T15:52:21;24.50;37.60
36424;DHT22;22458;45.328;9.514;2023-04-03T15:54:47;24.00;38.10
36424;DHT22;22458;45.328;9.514;2023-04-03T15:57:13;23.60;38.70
36424;DHT22;22458;45.328;9.514;2023-04-03T15:59:38;23.20;39.30
36424;DHT22;22458;45.328;9.514;2023-04-03T16:02:06;22.90;39.80
36424;DHT22;22458;45.328;9.514;2023-04-03T16:04:33;22.60;40.30
36424;DHT22;22458;45.328;9.514;2023-04-03T16:07:01;22.30;40.80
36424;DHT22;22458;45.328;9.514;2023-04-03T16:09:27;22.10;41.50
36424;DHT22;22458;45.328;9.514;2023-04-03T16:11:53;21.80;41.40
36424;DHT22;22458;45.328;9.514;2023-04-03T16:14:19;21.40;42.50
36424;DHT22;22458;45.328;9.514;2023-04-03T16:16:45;21.20;42.30
36424;DHT22;22458;45.328;9.514;2023-04-03T16:19:11;21.00;42.70
36424;DHT22;22458;45.328;9.514;2023-04-03T16:21:37;20.80;42.90
36424;DHT22;22458;45.328;9.514;2023-04-03T16:24:03;20.60;43.20
36424;DHT22;22458;45.328;9.514;2023-04-03T16:26:29;20.50;43.50
36424;DHT22;22458;45.328;9.514;2023-04-03T16:28:55;20.40;43.70
36424;DHT22;22458;45.328;9.514;2023-04-03T16:31:21;20.30;43.70
36424;DHT22;22458;45.328;9.514;2023-04-03T16:33:48;20.20;43.70
36424;DHT22;22458;45.328;9.514;2023-04-03T16:36:14;20.10;43.80
36424;DHT22;22458;45.328;9.514;2023-04-03T16:38:40;20.10;43.90
36424;DHT22;22458;45.328;9.514;2023-04-03T16:41:05;19.90;44.00
36424;DHT22;22458;45.328;9.514;2023-04-03T16:43:32;19.90;44.20
36424;DHT22;22458;45.328;9.514;2023-04-03T16:45:58;19.90;44.30
36424;DHT22;22458;45.328;9.514;2023-04-03T16:48:24;19.80;44.30
36424;DHT22;22458;45.328;9.514;2023-04-03T16:50:50;19.90;44.40
36424;DHT22;22458;45.328;9.514;2023-04-03T16:53:23;19.90;44.50
36424;DHT22;22458;45.328;9.514;2023-04-03T16:55:49;19.80;44.60
36424;DHT22;22458;45.328;9.514;2023-04-03T16:58:16;19.80;44.80
36424;DHT22;22458;45.328;9.514;2023-04-03T17:00:42;19.70;44.90
36424;DHT22;22458;45.328;9.514;2023-04-03T17:03:08;19.60;44.90
36424;DHT22;22458;45.328;9.514;2023-04-03T17:05:35;19.60;45.00
36424;DHT22;22458;45.328;9.514;2023-04-03T17:08:01;19.50;45.00
36424;DHT22;22458;45.328;9.514;2023-04-03T17:10:27;19.50;45.20
36424;DHT22;22458;45.328;9.514;2023-04-03T17:12:53;19.40;45.20